Yellowstone Natl Park, Wyoming
Current Conditions -  °F | °C
As of 4:08 AM on Wednesday 26 Nov 2014 (Local Time) from KDIJ Reporting Station
Overcast Overcast  
Wind Chill: 33°   Ceiling: 1800
Heat Index: 37°   Visibility: 10mi
Dew Point: 32°   Wind: 6mph
Humidity: 81%   Direction: 160°SSE
Pressure: 30.18"   Gusts: NA
Location:  44.5°N, 110.58°W
Report Text: KDIJ 261108Z AUTO 16005KT 10SM BKN018 OVC060 03/00 A3018 RMK AO2
Loading
Personal Weather Stations






























Interactive Weather Map New forecast layout! Learn more

10-Day Weather Forecast

Advertisements
Track Severe Weather on mobile